Lakenheath, RAF Lakenheath (EGUL)

NameRAF Lakenheath
CityLakenheath
CountryUnited Kingdom
ICAOEGUL
IATALKZ
Altitude10 m
CoordinatesGoogle Map
Live Air TrafficLiveATC.net
METAREGUL 192356Z AUTO 22008KT 9999 CLR 13/10 A3004 RMK AO2 SLP176 60000 T01290099 10172 20124 402010124 52012 $
2019-08-19 23:56:00 Wind: South-Southwest (220°) 4.12 m/s - Visibility: > 10000 m - Temperature: 13 °C - Dew point: 10 °C - Humidity: 82.2% - Pressure: 1017.27 hPa

Sorry, no flights used the airport in this database.